Time;durP1;ratioP1;P1;durP2;ratioP2;P2;SDS_P1;SDS_P2;PMS_P1;PMS_P2;Temp;Humidity;BMP_temperature;BMP_pressure;BME280_temperature;BME280_humidity;BME280_pressure;Samples;Min_cycle;Max_cycle;Signal;HPM_P1;HPM_P2
2020/12/07 10:14:43;;;;;;;30.62;14.80;;;;;;;-1.47;92.52;102115.11;1844263;76;22092;-83
2020/12/07 10:17:12;;;;;;;29.95;15.40;;;;;;;-1.50;92.73;102119.33;1821753;78;21203;-82
2020/12/07 10:19:42;;;;;;;33.83;16.65;;;;;;;-1.48;92.43;102110.85;1834041;77;21612;-86
2020/12/07 10:22:12;;;;;;;29.18;15.00;;;;;;;-1.43;92.17;102104.50;1810255;78;21038;-82
2020/12/07 10:24:40;;;;;;;31.35;15.20;;;;;;;-1.39;91.81;102106.23;1789106;80;21112;-85
2020/12/07 10:27:08;;;;;;;32.67;15.40;;;;;;;-1.42;91.57;102099.43;1791657;78;21022;-82
2020/12/07 10:29:36;;;;;;;31.45;15.85;;;;;;;-1.43;91.71;102096.86;1802036;78;21190;-83
2020/12/07 10:32:05;;;;;;;28.62;14.87;;;;;;;-1.42;91.82;102103.67;1785022;79;21368;-82
2020/12/07 10:34:34;;;;;;;30.10;14.63;;;;;;;-1.36;92.19;102103.28;1740393;79;20993;-83
2020/12/07 10:37:05;;;;;;;28.38;14.25;;;;;;;-1.28;92.12;102096.97;1790460;80;21677;-82
2020/12/07 10:39:38;;;;;;;31.75;15.90;;;;;;;-1.23;91.55;102092.32;1791388;79;20927;-86
2020/12/07 10:42:06;;;;;;;32.93;15.45;;;;;;;-1.33;90.80;102082.07;1799541;79;21615;-83
2020/12/07 10:44:39;;;;;;;34.98;16.23;;;;;;;-1.40;90.72;102089.23;1789035;80;21207;-83
2020/12/07 10:47:07;;;;;;;34.15;15.93;;;;;;;-1.46;90.72;102079.02;1788356;80;21727;-83
2020/12/07 10:49:41;;;;;;;35.58;15.83;;;;;;;-1.44;91.28;102078.63;1795055;79;21191;-88
2020/12/07 10:52:15;;;;;;;31.55;15.90;;;;;;;-1.45;91.22;102076.92;1763815;80;21196;-85
2020/12/07 10:54:46;;;;;;;35.00;16.90;;;;;;;-1.38;91.67;102071.02;1766526;80;21120;-87
2020/12/07 10:57:15;;;;;;;35.65;16.90;;;;;;;-1.39;91.18;102058.71;1764643;81;22254;-86
2020/12/07 10:59:43;;;;;;;31.12;15.58;;;;;;;-1.36;91.68;102057.87;1764434;81;21274;-86
2020/12/07 11:02:12;;;;;;;31.77;16.50;;;;;;;-1.30;91.33;102062.57;1763926;81;21741;-80
2020/12/07 11:04:41;;;;;;;32.55;16.73;;;;;;;-1.23;91.20;102062.18;1766109;80;21623;-84
2020/12/07 11:07:13;;;;;;;34.33;15.53;;;;;;;-1.21;90.82;102059.20;1765985;80;21191;-82
2020/12/07 11:09:42;;;;;;;31.95;16.00;;;;;;;-1.19;90.56;102062.62;1763577;81;21207;-84
2020/12/07 11:12:19;;;;;;;30.68;15.50;;;;;;;-1.14;90.53;102054.16;1763597;81;21718;-86
2020/12/07 11:14:45;;;;;;;31.15;14.95;;;;;;;-1.13;90.06;102058.41;1758229;81;21243;-84
2020/12/07 11:17:14;;;;;;;27.58;14.33;;;;;;;-1.14;89.55;102055.43;1750924;81;21013;-82
2020/12/07 11:19:43;;;;;;;32.88;15.72;;;;;;;-1.18;89.31;102042.70;1734090;82;21566;-83
2020/12/07 11:22:12;;;;;;;27.35;15.20;;;;;;;-1.20;89.49;102041.40;1843768;77;21252;-82
2020/12/07 11:24:40;;;;;;;29.60;14.45;;;;;;;-1.17;89.73;102034.19;1822587;77;21802;-85
2020/12/07 11:27:14;;;;;;;31.42;15.63;;;;;;;-1.11;89.73;102032.52;1798820;77;21179;-86
2020/12/07 11:29:47;;;;;;;27.55;14.00;;;;;;;-1.07;89.53;102029.55;1789194;78;21184;-85
2020/12/07 11:32:15;;;;;;;29.37;15.13;;;;;;;-1.08;88.86;102024.88;1789122;78;21097;-83
2020/12/07 11:34:46;;;;;;;28.40;14.78;;;;;;;-1.09;88.96;102027.02;1789867;79;21552;-80
2020/12/07 11:37:15;;;;;;;26.75;14.85;;;;;;;-1.10;88.88;102030.41;1805156;78;21081;-86
2020/12/07 11:42:41;;;;;;;32.17;15.48;;;;;;;-1.09;88.59;102031.27;1841603;77;22636;-82
2020/12/07 11:45:09;;;;;;;32.73;15.83;;;;;;;-1.12;88.68;102033.80;1815715;79;21128;-86
2020/12/07 11:47:37;;;;;;;27.93;14.68;;;;;;;-1.12;88.63;102038.44;1780480;80;21358;-86
2020/12/07 11:50:06;;;;;;;26.33;13.43;;;;;;;-1.12;88.03;102035.90;1752289;80;21215;-82
2020/12/07 11:52:34;;;;;;;27.73;13.43;;;;;;;-1.16;87.25;102036.75;1749891;81;21513;-84
2020/12/07 11:55:02;;;;;;;28.73;14.55;;;;;;;-1.20;87.10;102045.64;1750164;82;21126;-86
2020/12/07 11:57:30;;;;;;;30.17;14.13;;;;;;;-1.23;87.20;102032.89;1756736;80;21043;-83
2020/12/07 12:00:00;;;;;;;27.00;13.95;;;;;;;-1.27;87.23;102037.12;1750133;81;22107;-86
2020/12/07 12:02:32;;;;;;;30.35;15.03;;;;;;;-1.24;87.49;102032.03;1708283;84;21089;-86
2020/12/07 12:05:01;;;;;;;27.77;14.83;;;;;;;-1.26;86.82;102031.61;1725430;81;21077;-83
2020/12/07 12:07:29;;;;;;;26.87;14.93;;;;;;;-1.33;86.57;102043.87;1766715;80;21907;-87
2020/12/07 12:09:59;;;;;;;30.50;14.00;;;;;;;-1.34;86.81;102043.47;1781041;80;21207;-82
2020/12/07 12:12:27;;;;;;;32.28;17.75;;;;;;;-1.31;87.13;102040.94;1781057;80;21195;-85
2020/12/07 12:17:42;;;;;;;29.63;16.57;;;;;;;-1.13;86.52;102029.13;1893486;73;38014;-84
2020/12/07 12:20:16;;;;;;;29.72;16.67;;;;;;;-1.08;85.83;102032.52;1856613;74;21310;-88
2020/12/07 12:22:46;;;;;;;28.30;14.90;;;;;;;-0.94;85.17;102016.02;1854917;76;21232;-82
2020/12/07 12:25:15;;;;;;;30.95;15.55;;;;;;;-0.66;84.78;102022.01;1854579;76;20925;-81
2020/12/07 12:27:45;;;;;;;27.70;14.00;;;;;;;-0.24;83.44;102023.75;1854839;76;21119;-83
2020/12/07 12:30:16;;;;;;;31.42;16.45;;;;;;;0.09;82.51;102027.56;1854780;76;21065;-85
2020/12/07 12:32:52;;;;;;;27.15;14.85;;;;;;;0.35;80.77;102018.58;1876972;74;20905;-85
2020/12/07 12:35:21;;;;;;;30.92;15.38;;;;;;;0.37;79.18;102016.44;1879973;76;21305;-84
2020/12/07 12:37:49;;;;;;;27.13;14.85;;;;;;;0.30;78.36;102019.00;1889431;74;21057;-84
2020/12/07 12:40:19;;;;;;;28.98;14.90;;;;;;;0.35;78.65;102009.64;1890088;74;21021;-84
2020/12/07 12:42:47;;;;;;;32.20;15.75;;;;;;;0.48;77.43;102006.17;1886933;74;21136;-82
2020/12/07 12:45:16;;;;;;;22.85;13.13;;;;;;;0.69;77.06;102003.56;1864194;75;20875;-86
2020/12/07 12:47:44;;;;;;;27.17;14.38;;;;;;;0.85;76.41;101990.28;1817369;77;21468;-82
2020/12/07 12:50:12;;;;;;;26.33;14.00;;;;;;;0.91;75.52;101996.64;1794547;79;21021;-88
2020/12/07 12:52:52;;;;;;;22.65;13.13;;;;;;;0.81;74.90;101993.70;1785262;78;21089;-89
2020/12/07 12:55:20;;;;;;;24.20;13.48;;;;;;;0.65;75.66;102008.67;1814641;77;21065;-87
2020/12/07 12:57:48;;;;;;;24.55;14.30;;;;;;;0.34;75.62;102011.34;1820942;78;20990;-86
2020/12/07 13:00:16;;;;;;;26.90;14.10;;;;;;;0.15;76.47;102012.23;1830447;77;21188;-82
2020/12/07 13:02:45;;;;;;;28.90;13.50;;;;;;;-0.06;77.28;102004.17;1829880;77;21665;-81
2020/12/07 13:05:13;;;;;;;29.85;15.00;;;;;;;-0.19;77.96;101998.65;1815602;78;21893;-85
2020/12/07 13:07:42;;;;;;;23.62;13.62;;;;;;;-0.35;78.92;102003.33;1805090;77;21146;-88
2020/12/07 13:10:10;;;;;;;21.95;12.63;;;;;;;-0.61;79.09;102019.88;1830229;77;21202;-86
2020/12/07 13:12:40;;;;;;;23.67;13.13;;;;;;;-0.75;80.13;102016.91;1806835;76;21008;-85
2020/12/07 13:15:08;;;;;;;25.75;13.43;;;;;;;-0.84;80.73;102018.16;1822944;78;21675;-82
2020/12/07 13:17:39;;;;;;;26.70;13.18;;;;;;;-0.91;81.24;102024.08;1796954;76;21142;-84
2020/12/07 13:20:10;;;;;;;28.80;13.80;;;;;;;-1.07;81.30;102013.00;1834457;76;21840;-82
2020/12/07 13:22:45;;;;;;;30.60;14.60;;;;;;;-1.22;82.00;102014.23;1839374;76;21384;-81
2020/12/07 13:25:14;;;;;;;26.35;14.18;;;;;;;-1.38;82.80;102021.38;1798984;78;21716;-88
2020/12/07 13:28:00;;;;;;;27.85;14.38;;;;;;;-1.53;83.95;102020.86;1796996;79;21111;-85
2020/12/07 13:30:25;;;;;;;28.80;14.83;;;;;;;-1.68;84.34;102030.55;1802952;77;21079;-86
2020/12/07 13:32:54;;;;;;;27.67;13.60;;;;;;;-1.78;84.91;102024.11;1806744;78;21234;-87
2020/12/07 13:35:22;;;;;;;25.92;13.32;;;;;;;-1.91;85.49;102015.97;1826739;76;21162;-86
2020/12/07 13:37:55;;;;;;;22.70;13.72;;;;;;;-2.05;86.07;102018.45;1797042;79;25200;-84
2020/12/07 13:40:23;;;;;;;27.90;13.83;;;;;;;-2.14;86.67;102020.92;1823439;78;20965;-84
2020/12/07 13:42:51;;;;;;;29.87;14.55;;;;;;;-2.19;87.13;102013.66;1824370;78;20997;-84
2020/12/07 13:45:19;;;;;;;31.15;14.18;;;;;;;-2.29;87.37;102014.42;1811906;78;21159;-82
2020/12/07 13:47:49;;;;;;;29.55;13.85;;;;;;;-2.30;87.82;102016.56;1801403;78;21048;-80
2020/12/07 13:50:17;;;;;;;28.70;14.40;;;;;;;-2.30;88.10;102008.48;1797128;78;21360;-85
2020/12/07 13:52:45;;;;;;;24.12;12.53;;;;;;;-2.33;87.92;102008.46;1796926;79;20952;-85
2020/12/07 13:55:14;;;;;;;24.70;12.90;;;;;;;-2.36;88.31;102000.81;1796861;78;21127;-81
2020/12/07 13:57:43;;;;;;;22.67;13.72;;;;;;;-2.40;88.50;102001.65;1796810;78;21566;-82
2020/12/07 14:00:11;;;;;;;30.40;15.60;;;;;;;-2.43;88.80;102006.70;1815577;78;21582;-84
2020/12/07 14:02:39;;;;;;;35.30;15.15;;;;;;;-2.45;89.10;102007.09;1796525;79;21185;-86
2020/12/07 14:05:10;;;;;;;49.40;21.68;;;;;;;-2.49;89.29;101996.46;1795918;78;21811;-82
2020/12/07 14:07:38;;;;;;;37.73;17.30;;;;;;;-2.52;89.60;102001.52;1797377;78;21202;-80
2020/12/07 14:10:07;;;;;;;29.63;15.80;;;;;;;-2.51;89.97;102010.00;1795936;78;21171;-83
2020/12/07 14:12:35;;;;;;;25.02;13.48;;;;;;;-2.49;90.18;102014.25;1795275;78;21634;-83
2020/12/07 14:15:04;;;;;;;27.98;14.18;;;;;;;-2.45;90.37;102020.22;1796647;79;22247;-84
2020/12/07 14:17:42;;;;;;;26.52;14.63;;;;;;;-2.46;90.52;102027.02;1810422;78;21133;-83
2020/12/07 14:31:10;;;;;;;28.15;13.95;;;;;;;-2.58;91.52;102007.82;1967489;73;21890;-84
2020/12/07 14:41:47;;;;;;;28.57;16.65;;;;;;;-2.83;92.83;102017.32;1935985;74;21573;-85
2020/12/07 14:44:15;;;;;;;27.95;14.80;;;;;;;-2.89;93.02;102007.10;1935976;74;21474;-86
2020/12/07 14:46:49;;;;;;;28.62;14.98;;;;;;;-2.93;93.47;102010.44;1936283;74;21023;-82
2020/12/07 14:49:15;;;;;;;30.30;15.85;;;;;;;-2.96;93.80;102006.18;1935023;74;21250;-85
2020/12/07 14:51:47;;;;;;;35.33;17.12;;;;;;;-2.97;93.86;101996.88;1935557;74;21015;-85
2020/12/07 14:54:28;;;;;;;29.92;14.63;;;;;;;-3.00;94.11;101995.55;1935540;74;20971;-88
2020/12/07 14:57:50;;;;;;;31.12;15.68;;;;;;;-3.01;94.48;101995.55;1934144;74;20964;-82
2020/12/07 15:15:43;;;;;;;25.88;14.53;;;;;;;-2.95;95.50;102013.39;1936101;74;21513;-86
2020/12/07 15:18:12;;;;;;;25.82;13.98;;;;;;;-2.94;95.43;102011.30;1935704;74;21547;-83
2020/12/07 15:20:41;;;;;;;29.12;14.13;;;;;;;-2.92;95.36;102018.50;1935655;74;20970;-81
